sensor_id;sensor_type;location;lat;lon;timestamp;temperature;humidity
24636;DHT22;12772;49.794;10.024;2023-07-13T00:01:55;24.70;32.10
24636;DHT22;12772;49.794;10.024;2023-07-13T00:05:58;24.60;31.90
24636;DHT22;12772;49.794;10.024;2023-07-13T00:10:00;24.60;31.90
24636;DHT22;12772;49.794;10.024;2023-07-13T00:14:03;24.50;31.80
24636;DHT22;12772;49.794;10.024;2023-07-13T00:18:05;24.50;31.90
24636;DHT22;12772;49.794;10.024;2023-07-13T00:22:07;24.40;31.70
24636;DHT22;12772;49.794;10.024;2023-07-13T00:26:10;24.30;31.60
24636;DHT22;12772;49.794;10.024;2023-07-13T00:30:13;24.30;31.60
24636;DHT22;12772;49.794;10.024;2023-07-13T00:34:15;24.20;31.50
24636;DHT22;12772;49.794;10.024;2023-07-13T00:38:17;24.10;31.70
24636;DHT22;12772;49.794;10.024;2023-07-13T00:42:19;24.00;31.80
24636;DHT22;12772;49.794;10.024;2023-07-13T00:46:25;24.00;31.60
24636;DHT22;12772;49.794;10.024;2023-07-13T00:50:27;24.00;32.00
24636;DHT22;12772;49.794;10.024;2023-07-13T00:54:35;23.90;32.00
24636;DHT22;12772;49.794;10.024;2023-07-13T00:58:38;24.00;32.20
24636;DHT22;12772;49.794;10.024;2023-07-13T01:02:43;24.00;32.20
24636;DHT22;12772;49.794;10.024;2023-07-13T01:06:46;23.90;32.20
24636;DHT22;12772;49.794;10.024;2023-07-13T01:10:56;23.90;32.30
24636;DHT22;12772;49.794;10.024;2023-07-13T01:15:00;23.90;32.30
24636;DHT22;12772;49.794;10.024;2023-07-13T01:19:07;23.90;32.30
24636;DHT22;12772;49.794;10.024;2023-07-13T01:23:12;23.80;32.40
24636;DHT22;12772;49.794;10.024;2023-07-13T01:27:17;23.80;32.60
24636;DHT22;12772;49.794;10.024;2023-07-13T01:31:21;23.70;32.50
24636;DHT22;12772;49.794;10.024;2023-07-13T01:35:24;23.70;32.80
24636;DHT22;12772;49.794;10.024;2023-07-13T01:39:27;23.70;32.90
24636;DHT22;12772;49.794;10.024;2023-07-13T01:43:30;23.60;32.70
24636;DHT22;12772;49.794;10.024;2023-07-13T01:47:33;23.50;32.90
24636;DHT22;12772;49.794;10.024;2023-07-13T01:51:37;23.40;33.10
24636;DHT22;12772;49.794;10.024;2023-07-13T01:55:39;23.30;33.30
24636;DHT22;12772;49.794;10.024;2023-07-13T01:59:41;23.30;33.50
24636;DHT22;12772;49.794;10.024;2023-07-13T02:03:43;23.30;33.60
24636;DHT22;12772;49.794;10.024;2023-07-13T02:07:45;23.20;33.60
24636;DHT22;12772;49.794;10.024;2023-07-13T02:11:47;23.20;33.70
24636;DHT22;12772;49.794;10.024;2023-07-13T02:15:52;23.10;33.70
24636;DHT22;12772;49.794;10.024;2023-07-13T02:19:54;23.10;33.70
24636;DHT22;12772;49.794;10.024;2023-07-13T02:23:56;23.00;33.80
24636;DHT22;12772;49.794;10.024;2023-07-13T02:27:58;23.00;34.10
24636;DHT22;12772;49.794;10.024;2023-07-13T02:32:03;22.90;34.20
24636;DHT22;12772;49.794;10.024;2023-07-13T02:36:06;22.90;34.10
24636;DHT22;12772;49.794;10.024;2023-07-13T02:40:08;22.90;34.00
24636;DHT22;12772;49.794;10.024;2023-07-13T02:44:13;22.90;33.90
24636;DHT22;12772;49.794;10.024;2023-07-13T02:48:15;22.70;33.90
24636;DHT22;12772;49.794;10.024;2023-07-13T02:52:17;22.60;34.00
24636;DHT22;12772;49.794;10.024;2023-07-13T02:56:23;22.60;34.20
24636;DHT22;12772;49.794;10.024;2023-07-13T03:00:25;22.50;34.20
24636;DHT22;12772;49.794;10.024;2023-07-13T03:04:28;22.50;34.30
24636;DHT22;12772;49.794;10.024;2023-07-13T03:08:30;22.40;34.20
24636;DHT22;12772;49.794;10.024;2023-07-13T03:12:33;22.40;34.10
24636;DHT22;12772;49.794;10.024;2023-07-13T03:16:35;22.30;34.00
24636;DHT22;12772;49.794;10.024;2023-07-13T03:20:37;22.30;34.00
24636;DHT22;12772;49.794;10.024;2023-07-13T03:24:39;22.20;33.90
24636;DHT22;12772;49.794;10.024;2023-07-13T03:28:41;22.20;34.10
24636;DHT22;12772;49.794;10.024;2023-07-13T03:32:43;22.10;34.00
24636;DHT22;12772;49.794;10.024;2023-07-13T03:36:45;22.00;34.10
24636;DHT22;12772;49.794;10.024;2023-07-13T03:40:48;21.90;34.20
24636;DHT22;12772;49.794;10.024;2023-07-13T03:44:50;21.90;34.50
24636;DHT22;12772;49.794;10.024;2023-07-13T03:48:53;21.80;34.70
24636;DHT22;12772;49.794;10.024;2023-07-13T03:52:56;21.80;35.10
24636;DHT22;12772;49.794;10.024;2023-07-13T03:56:58;21.70;35.10
24636;DHT22;12772;49.794;10.024;2023-07-13T04:01:03;21.70;35.00
24636;DHT22;12772;49.794;10.024;2023-07-13T04:05:06;21.70;35.10
24636;DHT22;12772;49.794;10.024;2023-07-13T04:09:08;21.70;35.10
24636;DHT22;12772;49.794;10.024;2023-07-13T04:13:10;21.70;35.30
24636;DHT22;12772;49.794;10.024;2023-07-13T04:17:12;21.70;35.40
24636;DHT22;12772;49.794;10.024;2023-07-13T04:21:15;21.60;35.90
24636;DHT22;12772;49.794;10.024;2023-07-13T04:25:17;21.60;35.90
24636;DHT22;12772;49.794;10.024;2023-07-13T04:29:19;21.60;35.90
24636;DHT22;12772;49.794;10.024;2023-07-13T04:33:21;21.60;35.90
24636;DHT22;12772;49.794;10.024;2023-07-13T04:37:24;21.60;35.90
24636;DHT22;12772;49.794;10.024;2023-07-13T04:41:25;21.60;35.90
24636;DHT22;12772;49.794;10.024;2023-07-13T04:45:28;21.60;35.90
24636;DHT22;12772;49.794;10.024;2023-07-13T04:49:31;21.60;35.90
24636;DHT22;12772;49.794;10.024;2023-07-13T04:53:33;21.70;36.00
24636;DHT22;12772;49.794;10.024;2023-07-13T04:57:36;21.80;36.10
24636;DHT22;12772;49.794;10.024;2023-07-13T05:01:38;21.80;35.40
24636;DHT22;12772;49.794;10.024;2023-07-13T05:05:41;21.90;35.20
24636;DHT22;12772;49.794;10.024;2023-07-13T05:09:43;21.80;35.00
24636;DHT22;12772;49.794;10.024;2023-07-13T05:13:45;21.80;35.00
24636;DHT22;12772;49.794;10.024;2023-07-13T05:17:48;21.80;34.70
24636;DHT22;12772;49.794;10.024;2023-07-13T05:21:50;21.70;34.70
24636;DHT22;12772;49.794;10.024;2023-07-13T05:25:52;21.70;34.80
24636;DHT22;12772;49.794;10.024;2023-07-13T05:29:54;21.70;34.60
24636;DHT22;12772;49.794;10.024;2023-07-13T05:33:56;21.70;34.70
24636;DHT22;12772;49.794;10.024;2023-07-13T05:37:58;21.70;34.60
24636;DHT22;12772;49.794;10.024;2023-07-13T05:42:01;21.70;34.60
24636;DHT22;12772;49.794;10.024;2023-07-13T05:46:03;21.80;34.70
24636;DHT22;12772;49.794;10.024;2023-07-13T05:50:05;21.80;34.50
24636;DHT22;12772;49.794;10.024;2023-07-13T05:54:07;21.80;34.30
24636;DHT22;12772;49.794;10.024;2023-07-13T05:58:10;21.80;34.00
24636;DHT22;12772;49.794;10.024;2023-07-13T06:02:13;21.80;33.80
24636;DHT22;12772;49.794;10.024;2023-07-13T06:06:16;21.80;33.60
24636;DHT22;12772;49.794;10.024;2023-07-13T06:10:18;21.80;33.40
24636;DHT22;12772;49.794;10.024;2023-07-13T06:14:20;21.80;33.30
24636;DHT22;12772;49.794;10.024;2023-07-13T06:18:22;21.90;33.30
24636;DHT22;12772;49.794;10.024;2023-07-13T06:22:24;21.90;33.20
24636;DHT22;12772;49.794;10.024;2023-07-13T06:26:27;21.90;33.10
24636;DHT22;12772;49.794;10.024;2023-07-13T06:30:29;22.00;33.10
24636;DHT22;12772;49.794;10.024;2023-07-13T06:34:32;22.00;33.00
24636;DHT22;12772;49.794;10.024;2023-07-13T06:38:34;22.10;32.30
24636;DHT22;12772;49.794;10.024;2023-07-13T06:42:37;22.10;31.60
24636;DHT22;12772;49.794;10.024;2023-07-13T06:46:39;22.20;31.00
24636;DHT22;12772;49.794;10.024;2023-07-13T06:50:42;22.30;30.90
24636;DHT22;12772;49.794;10.024;2023-07-13T06:54:44;22.30;30.50
24636;DHT22;12772;49.794;10.024;2023-07-13T06:58:46;22.30;31.30
24636;DHT22;12772;49.794;10.024;2023-07-13T07:02:48;22.30;30.90
24636;DHT22;12772;49.794;10.024;2023-07-13T07:06:50;22.40;31.20
24636;DHT22;12772;49.794;10.024;2023-07-13T07:10:52;22.40;30.80
24636;DHT22;12772;49.794;10.024;2023-07-13T07:14:55;22.50;30.50
24636;DHT22;12772;49.794;10.024;2023-07-13T07:18:57;22.60;30.20
24636;DHT22;12772;49.794;10.024;2023-07-13T07:22:59;22.70;30.00
24636;DHT22;12772;49.794;10.024;2023-07-13T07:27:01;22.80;30.00
24636;DHT22;12772;49.794;10.024;2023-07-13T07:31:03;23.00;30.20
24636;DHT22;12772;49.794;10.024;2023-07-13T07:35:05;23.10;30.20
24636;DHT22;12772;49.794;10.024;2023-07-13T07:39:08;23.20;30.40
24636;DHT22;12772;49.794;10.024;2023-07-13T07:43:11;23.40;29.80
24636;DHT22;12772;49.794;10.024;2023-07-13T07:47:14;23.50;29.20
24636;DHT22;12772;49.794;10.024;2023-07-13T07:51:16;23.60;28.10
24636;DHT22;12772;49.794;10.024;2023-07-13T07:55:18;23.70;27.70
24636;DHT22;12772;49.794;10.024;2023-07-13T07:59:20;23.80;27.50
24636;DHT22;12772;49.794;10.024;2023-07-13T08:03:22;23.80;27.30
24636;DHT22;12772;49.794;10.024;2023-07-13T08:07:24;23.90;27.10
24636;DHT22;12772;49.794;10.024;2023-07-13T08:11:26;24.00;26.90
24636;DHT22;12772;49.794;10.024;2023-07-13T08:15:28;24.10;27.00
24636;DHT22;12772;49.794;10.024;2023-07-13T08:19:30;24.20;27.20
24636;DHT22;12772;49.794;10.024;2023-07-13T08:23:32;24.40;27.00
24636;DHT22;12772;49.794;10.024;2023-07-13T08:27:34;24.50;26.30
24636;DHT22;12772;49.794;10.024;2023-07-13T08:31:36;24.70;26.20
24636;DHT22;12772;49.794;10.024;2023-07-13T08:35:38;24.80;26.00
24636;DHT22;12772;49.794;10.024;2023-07-13T08:39:40;24.90;25.60
24636;DHT22;12772;49.794;10.024;2023-07-13T08:43:46;25.00;25.50
24636;DHT22;12772;49.794;10.024;2023-07-13T08:47:55;25.10;24.90
24636;DHT22;12772;49.794;10.024;2023-07-13T08:52:04;25.30;24.90
24636;DHT22;12772;49.794;10.024;2023-07-13T08:56:19;25.40;24.90
24636;DHT22;12772;49.794;10.024;2023-07-13T09:00:25;25.50;24.70
24636;DHT22;12772;49.794;10.024;2023-07-13T09:04:48;25.60;24.60
24636;DHT22;12772;49.794;10.024;2023-07-13T09:09:15;25.70;24.10
24636;DHT22;12772;49.794;10.024;2023-07-13T09:13:40;25.70;24.10
24636;DHT22;12772;49.794;10.024;2023-07-13T09:17:51;25.70;24.30
24636;DHT22;12772;49.794;10.024;2023-07-13T09:21:54;25.80;24.70
24636;DHT22;12772;49.794;10.024;2023-07-13T09:26:20;25.90;23.90
24636;DHT22;12772;49.794;10.024;2023-07-13T09:30:50;26.00;24.40
24636;DHT22;12772;49.794;10.024;2023-07-13T09:34:54;26.10;24.10
24636;DHT22;12772;49.794;10.024;2023-07-13T09:43:14;26.40;23.80
24636;DHT22;12772;49.794;10.024;2023-07-13T09:47:28;26.50;23.40
24636;DHT22;12772;49.794;10.024;2023-07-13T09:51:31;26.60;23.60
24636;DHT22;12772;49.794;10.024;2023-07-13T09:55:36;26.70;23.20
24636;DHT22;12772;49.794;10.024;2023-07-13T09:59:44;26.80;22.80
24636;DHT22;12772;49.794;10.024;2023-07-13T10:03:54;26.80;22.50
24636;DHT22;12772;49.794;10.024;2023-07-13T10:07:56;26.70;21.90
24636;DHT22;12772;49.794;10.024;2023-07-13T10:11:58;26.50;22.20
24636;DHT22;12772;49.794;10.024;2023-07-13T10:16:01;26.40;22.80
24636;DHT22;12772;49.794;10.024;2023-07-13T10:20:05;26.20;23.00
24636;DHT22;12772;49.794;10.024;2023-07-13T10:24:24;26.20;23.30
24636;DHT22;12772;49.794;10.024;2023-07-13T10:28:33;26.20;23.40
24636;DHT22;12772;49.794;10.024;2023-07-13T10:32:36;26.20;23.80
24636;DHT22;12772;49.794;10.024;2023-07-13T10:36:41;26.20;23.60
24636;DHT22;12772;49.794;10.024;2023-07-13T10:41:02;26.40;23.80
24636;DHT22;12772;49.794;10.024;2023-07-13T10:45:16;26.50;23.80
24636;DHT22;12772;49.794;10.024;2023-07-13T10:49:20;26.80;23.30
24636;DHT22;12772;49.794;10.024;2023-07-13T10:53:32;26.80;22.60
24636;DHT22;12772;49.794;10.024;2023-07-13T10:57:42;26.90;22.60
24636;DHT22;12772;49.794;10.024;2023-07-13T11:01:55;27.00;22.50
24636;DHT22;12772;49.794;10.024;2023-07-13T11:06:29;27.10;22.30
24636;DHT22;12772;49.794;10.024;2023-07-13T11:10:55;27.20;21.80
24636;DHT22;12772;49.794;10.024;2023-07-13T11:15:05;27.20;21.80
24636;DHT22;12772;49.794;10.024;2023-07-13T11:19:25;27.20;21.80
24636;DHT22;12772;49.794;10.024;2023-07-13T11:23:32;27.30;21.80
24636;DHT22;12772;49.794;10.024;2023-07-13T11:27:46;27.30;21.80
24636;DHT22;12772;49.794;10.024;2023-07-13T11:31:55;27.40;21.90
24636;DHT22;12772;49.794;10.024;2023-07-13T11:36:04;27.40;21.90
24636;DHT22;12772;49.794;10.024;2023-07-13T11:40:13;27.50;21.60
24636;DHT22;12772;49.794;10.024;2023-07-13T11:44:21;27.50;21.80
24636;DHT22;12772;49.794;10.024;2023-07-13T11:48:26;27.40;21.30
24636;DHT22;12772;49.794;10.024;2023-07-13T11:52:33;27.20;21.80
24636;DHT22;12772;49.794;10.024;2023-07-13T11:56:36;27.20;21.80
24636;DHT22;12772;49.794;10.024;2023-07-13T12:00:38;27.20;21.80
24636;DHT22;12772;49.794;10.024;2023-07-13T12:04:42;27.30;21.80
24636;DHT22;12772;49.794;10.024;2023-07-13T12:08:45;27.40;21.90
24636;DHT22;12772;49.794;10.024;2023-07-13T12:12:51;27.50;22.00
24636;DHT22;12772;49.794;10.024;2023-07-13T12:16:54;27.60;21.40
24636;DHT22;12772;49.794;10.024;2023-07-13T12:20:58;27.60;21.40
24636;DHT22;12772;49.794;10.024;2023-07-13T12:25:00;27.60;21.20
24636;DHT22;12772;49.794;10.024;2023-07-13T12:29:05;27.60;21.00
24636;DHT22;12772;49.794;10.024;2023-07-13T12:33:11;27.70;21.10
24636;DHT22;12772;49.794;10.024;2023-07-13T12:37:15;27.80;20.90
24636;DHT22;12772;49.794;10.024;2023-07-13T12:41:17;27.90;20.70
24636;DHT22;12772;49.794;10.024;2023-07-13T12:45:23;27.90;20.90
24636;DHT22;12772;49.794;10.024;2023-07-13T12:49:28;27.90;20.60
24636;DHT22;12772;49.794;10.024;2023-07-13T12:53:31;27.90;20.70
24636;DHT22;12772;49.794;10.024;2023-07-13T12:57:39;27.90;20.70
24636;DHT22;12772;49.794;10.024;2023-07-13T13:01:41;27.90;20.70
24636;DHT22;12772;49.794;10.024;2023-07-13T13:05:43;27.90;20.50
24636;DHT22;12772;49.794;10.024;2023-07-13T13:09:45;27.90;20.20
24636;DHT22;12772;49.794;10.024;2023-07-13T13:13:49;27.80;20.50
24636;DHT22;12772;49.794;10.024;2023-07-13T13:17:52;27.60;20.50
24636;DHT22;12772;49.794;10.024;2023-07-13T13:21:56;27.50;20.90
24636;DHT22;12772;49.794;10.024;2023-07-13T13:25:58;27.50;21.10
24636;DHT22;12772;49.794;10.024;2023-07-13T13:30:00;27.40;21.00
24636;DHT22;12772;49.794;10.024;2023-07-13T13:34:07;27.30;21.40
24636;DHT22;12772;49.794;10.024;2023-07-13T13:38:17;27.20;21.80
24636;DHT22;12772;49.794;10.024;2023-07-13T13:42:20;27.20;21.80
24636;DHT22;12772;49.794;10.024;2023-07-13T13:46:25;27.10;21.70
24636;DHT22;12772;49.794;10.024;2023-07-13T13:50:29;27.20;21.80
24636;DHT22;12772;49.794;10.024;2023-07-13T13:54:31;27.30;21.80
24636;DHT22;12772;49.794;10.024;2023-07-13T13:58:33;27.30;21.80
24636;DHT22;12772;49.794;10.024;2023-07-13T14:02:35;27.30;21.80
24636;DHT22;12772;49.794;10.024;2023-07-13T14:06:38;27.40;21.90
24636;DHT22;12772;49.794;10.024;2023-07-13T14:10:40;27.30;21.80
24636;DHT22;12772;49.794;10.024;2023-07-13T14:14:42;27.30;21.80
24636;DHT22;12772;49.794;10.024;2023-07-13T14:18:45;27.30;21.80
24636;DHT22;12772;49.794;10.024;2023-07-13T14:22:47;27.30;21.90
24636;DHT22;12772;49.794;10.024;2023-07-13T14:26:49;27.40;21.90
24636;DHT22;12772;49.794;10.024;2023-07-13T14:30:52;27.50;21.50
24636;DHT22;12772;49.794;10.024;2023-07-13T14:34:55;27.50;21.70
24636;DHT22;12772;49.794;10.024;2023-07-13T14:39:00;27.50;21.20
24636;DHT22;12772;49.794;10.024;2023-07-13T14:43:03;27.40;21.00
24636;DHT22;12772;49.794;10.024;2023-07-13T14:47:05;27.30;21.20
24636;DHT22;12772;49.794;10.024;2023-07-13T14:51:08;27.30;21.60
24636;DHT22;12772;49.794;10.024;2023-07-13T14:55:16;27.30;21.70
24636;DHT22;12772;49.794;10.024;2023-07-13T14:59:18;27.40;21.90
24636;DHT22;12772;49.794;10.024;2023-07-13T15:03:23;27.50;21.40
24636;DHT22;12772;49.794;10.024;2023-07-13T15:07:26;27.60;20.60
24636;DHT22;12772;49.794;10.024;2023-07-13T15:11:28;27.60;20.60
24636;DHT22;12772;49.794;10.024;2023-07-13T15:15:32;27.60;20.60
24636;DHT22;12772;49.794;10.024;2023-07-13T15:19:36;27.70;20.30
24636;DHT22;12772;49.794;10.024;2023-07-13T15:23:38;27.80;20.30
24636;DHT22;12772;49.794;10.024;2023-07-13T15:27:40;27.80;20.20
24636;DHT22;12772;49.794;10.024;2023-07-13T15:31:42;27.90;20.20
24636;DHT22;12772;49.794;10.024;2023-07-13T15:35:44;27.90;19.70
24636;DHT22;12772;49.794;10.024;2023-07-13T15:39:47;28.00;20.00
24636;DHT22;12772;49.794;10.024;2023-07-13T15:43:51;28.00;19.70
24636;DHT22;12772;49.794;10.024;2023-07-13T15:47:54;27.90;19.70
24636;DHT22;12772;49.794;10.024;2023-07-13T15:51:56;27.80;19.70
24636;DHT22;12772;49.794;10.024;2023-07-13T15:55:58;27.60;19.80
24636;DHT22;12772;49.794;10.024;2023-07-13T16:00:01;27.40;19.70
24636;DHT22;12772;49.794;10.024;2023-07-13T16:04:06;27.30;20.20
24636;DHT22;12772;49.794;10.024;2023-07-13T16:08:24;27.30;20.40
24636;DHT22;12772;49.794;10.024;2023-07-13T16:12:26;27.40;20.60
24636;DHT22;12772;49.794;10.024;2023-07-13T16:16:31;27.50;20.30
24636;DHT22;12772;49.794;10.024;2023-07-13T16:20:33;27.50;20.50
24636;DHT22;12772;49.794;10.024;2023-07-13T16:24:35;27.50;20.70
24636;DHT22;12772;49.794;10.024;2023-07-13T16:28:38;27.40;20.90
24636;DHT22;12772;49.794;10.024;2023-07-13T16:32:40;27.40;21.20
24636;DHT22;12772;49.794;10.024;2023-07-13T16:36:42;27.40;21.20
24636;DHT22;12772;49.794;10.024;2023-07-13T16:40:46;27.30;20.90
24636;DHT22;12772;49.794;10.024;2023-07-13T16:44:48;27.30;20.90
24636;DHT22;12772;49.794;10.024;2023-07-13T16:48:52;27.30;21.50
24636;DHT22;12772;49.794;10.024;2023-07-13T16:52:54;27.40;21.60
24636;DHT22;12772;49.794;10.024;2023-07-13T16:56:58;27.40;21.40
24636;DHT22;12772;49.794;10.024;2023-07-13T17:01:01;27.30;21.10
24636;DHT22;12772;49.794;10.024;2023-07-13T17:05:05;27.20;21.00
24636;DHT22;12772;49.794;10.024;2023-07-13T17:09:11;27.10;21.10
24636;DHT22;12772;49.794;10.024;2023-07-13T17:13:14;26.90;21.60
24636;DHT22;12772;49.794;10.024;2023-07-13T17:17:28;26.80;21.50
24636;DHT22;12772;49.794;10.024;2023-07-13T17:21:30;26.80;21.50
24636;DHT22;12772;49.794;10.024;2023-07-13T17:25:32;26.80;21.50
24636;DHT22;12772;49.794;10.024;2023-07-13T17:29:34;26.90;21.70
24636;DHT22;12772;49.794;10.024;2023-07-13T17:33:38;26.90;21.60
24636;DHT22;12772;49.794;10.024;2023-07-13T17:37:41;26.80;21.50
24636;DHT22;12772;49.794;10.024;2023-07-13T17:41:44;26.80;21.50
24636;DHT22;12772;49.794;10.024;2023-07-13T17:45:46;26.70;21.40
24636;DHT22;12772;49.794;10.024;2023-07-13T17:49:48;26.70;21.40
24636;DHT22;12772;49.794;10.024;2023-07-13T17:53:50;26.60;21.40
24636;DHT22;12772;49.794;10.024;2023-07-13T17:57:53;26.60;21.40
24636;DHT22;12772;49.794;10.024;2023-07-13T18:01:55;26.50;21.30
24636;DHT22;12772;49.794;10.024;2023-07-13T18:05:58;26.40;21.20
24636;DHT22;12772;49.794;10.024;2023-07-13T18:10:00;26.40;21.70
24636;DHT22;12772;49.794;10.024;2023-07-13T18:14:02;26.30;21.20
24636;DHT22;12772;49.794;10.024;2023-07-13T18:18:09;26.20;21.10
24636;DHT22;12772;49.794;10.024;2023-07-13T18:22:15;26.20;21.10
24636;DHT22;12772;49.794;10.024;2023-07-13T18:26:18;26.20;21.10
24636;DHT22;12772;49.794;10.024;2023-07-13T18:30:21;26.20;21.10
24636;DHT22;12772;49.794;10.024;2023-07-13T18:34:24;26.20;21.40
24636;DHT22;12772;49.794;10.024;2023-07-13T18:38:27;26.20;21.60
24636;DHT22;12772;49.794;10.024;2023-07-13T18:42:29;26.20;21.80
24636;DHT22;12772;49.794;10.024;2023-07-13T18:46:33;26.10;22.00
24636;DHT22;12772;49.794;10.024;2023-07-13T18:50:36;26.00;21.90
24636;DHT22;12772;49.794;10.024;2023-07-13T18:54:41;25.90;22.20
24636;DHT22;12772;49.794;10.024;2023-07-13T18:58:43;25.90;22.50
24636;DHT22;12772;49.794;10.024;2023-07-13T19:02:45;25.80;22.60
24636;DHT22;12772;49.794;10.024;2023-07-13T19:06:47;25.70;22.70
24636;DHT22;12772;49.794;10.024;2023-07-13T19:10:51;25.70;22.90
24636;DHT22;12772;49.794;10.024;2023-07-13T19:14:54;25.70;23.00
24636;DHT22;12772;49.794;10.024;2023-07-13T19:18:56;25.60;23.20
24636;DHT22;12772;49.794;10.024;2023-07-13T19:23:04;25.50;23.30
24636;DHT22;12772;49.794;10.024;2023-07-13T19:27:13;25.50;23.50
24636;DHT22;12772;49.794;10.024;2023-07-13T19:31:22;25.50;23.50
24636;DHT22;12772;49.794;10.024;2023-07-13T19:35:25;25.40;23.60
24636;DHT22;12772;49.794;10.024;2023-07-13T19:39:36;25.40;23.90
24636;DHT22;12772;49.794;10.024;2023-07-13T19:43:40;25.30;24.00
24636;DHT22;12772;49.794;10.024;2023-07-13T19:47:42;25.30;24.20
24636;DHT22;12772;49.794;10.024;2023-07-13T19:51:44;25.20;24.20
24636;DHT22;12772;49.794;10.024;2023-07-13T19:55:47;25.20;24.50
24636;DHT22;12772;49.794;10.024;2023-07-13T19:59:51;25.10;24.50
24636;DHT22;12772;49.794;10.024;2023-07-13T20:03:54;25.10;24.80
24636;DHT22;12772;49.794;10.024;2023-07-13T20:07:58;25.10;24.90
24636;DHT22;12772;49.794;10.024;2023-07-13T20:12:01;25.10;25.20
24636;DHT22;12772;49.794;10.024;2023-07-13T20:16:04;25.10;25.20
24636;DHT22;12772;49.794;10.024;2023-07-13T20:20:16;25.00;25.10
24636;DHT22;12772;49.794;10.024;2023-07-13T20:24:19;24.90;25.10
24636;DHT22;12772;49.794;10.024;2023-07-13T20:28:21;24.80;25.70
24636;DHT22;12772;49.794;10.024;2023-07-13T20:32:25;24.80;26.00
24636;DHT22;12772;49.794;10.024;2023-07-13T20:36:27;24.70;25.90
24636;DHT22;12772;49.794;10.024;2023-07-13T20:40:31;24.60;25.90
24636;DHT22;12772;49.794;10.024;2023-07-13T20:44:33;24.40;26.00
24636;DHT22;12772;49.794;10.024;2023-07-13T20:48:40;24.40;26.30
24636;DHT22;12772;49.794;10.024;2023-07-13T20:52:48;24.20;26.30
24636;DHT22;12772;49.794;10.024;2023-07-13T20:56:50;24.10;26.60
24636;DHT22;12772;49.794;10.024;2023-07-13T21:00:52;24.00;26.90
24636;DHT22;12772;49.794;10.024;2023-07-13T21:04:55;23.90;27.00
24636;DHT22;12772;49.794;10.024;2023-07-13T21:08:57;23.80;27.20
24636;DHT22;12772;49.794;10.024;2023-07-13T21:12:59;23.60;27.40
24636;DHT22;12772;49.794;10.024;2023-07-13T21:17:01;23.60;27.70
24636;DHT22;12772;49.794;10.024;2023-07-13T21:21:03;23.50;27.90
24636;DHT22;12772;49.794;10.024;2023-07-13T21:25:16;23.40;28.00
24636;DHT22;12772;49.794;10.024;2023-07-13T21:29:18;23.40;28.20
24636;DHT22;12772;49.794;10.024;2023-07-13T21:33:20;23.30;28.40
24636;DHT22;12772;49.794;10.024;2023-07-13T21:37:23;23.30;28.60
24636;DHT22;12772;49.794;10.024;2023-07-13T21:41:28;23.20;28.60
24636;DHT22;12772;49.794;10.024;2023-07-13T21:45:31;23.20;28.80
24636;DHT22;12772;49.794;10.024;2023-07-13T21:49:33;23.10;29.00
24636;DHT22;12772;49.794;10.024;2023-07-13T21:53:35;23.00;29.20
24636;DHT22;12772;49.794;10.024;2023-07-13T21:57:37;22.90;29.40
24636;DHT22;12772;49.794;10.024;2023-07-13T22:01:39;22.80;29.90
24636;DHT22;12772;49.794;10.024;2023-07-13T22:05:41;22.70;29.90
24636;DHT22;12772;49.794;10.024;2023-07-13T22:09:43;22.60;29.90
24636;DHT22;12772;49.794;10.024;2023-07-13T22:13:45;22.60;29.80
24636;DHT22;12772;49.794;10.024;2023-07-13T22:17:48;22.50;29.80
24636;DHT22;12772;49.794;10.024;2023-07-13T22:21:51;22.50;29.80
24636;DHT22;12772;49.794;10.024;2023-07-13T22:25:55;22.50;29.80
24636;DHT22;12772;49.794;10.024;2023-07-13T22:29:58;22.40;29.70
24636;DHT22;12772;49.794;10.024;2023-07-13T22:34:00;22.20;29.50
24636;DHT22;12772;49.794;10.024;2023-07-13T22:38:02;22.20;30.00
24636;DHT22;12772;49.794;10.024;2023-07-13T22:42:04;22.10;30.10
24636;DHT22;12772;49.794;10.024;2023-07-13T22:46:11;22.00;30.40
24636;DHT22;12772;49.794;10.024;2023-07-13T22:50:17;21.90;30.70
24636;DHT22;12772;49.794;10.024;2023-07-13T22:54:19;21.70;30.90
24636;DHT22;12772;49.794;10.024;2023-07-13T22:58:24;21.60;31.30
24636;DHT22;12772;49.794;10.024;2023-07-13T23:02:26;21.50;31.60
24636;DHT22;12772;49.794;10.024;2023-07-13T23:06:33;21.50;31.90
24636;DHT22;12772;49.794;10.024;2023-07-13T23:10:36;21.40;31.90
24636;DHT22;12772;49.794;10.024;2023-07-13T23:14:38;21.40;32.00
24636;DHT22;12772;49.794;10.024;2023-07-13T23:18:40;21.40;32.20
24636;DHT22;12772;49.794;10.024;2023-07-13T23:22:42;21.30;32.30
24636;DHT22;12772;49.794;10.024;2023-07-13T23:26:44;21.30;32.40
24636;DHT22;12772;49.794;10.024;2023-07-13T23:30:48;21.20;32.50
24636;DHT22;12772;49.794;10.024;2023-07-13T23:34:50;21.20;32.70
24636;DHT22;12772;49.794;10.024;2023-07-13T23:38:52;21.10;32.70
24636;DHT22;12772;49.794;10.024;2023-07-13T23:42:54;21.10;32.90
24636;DHT22;12772;49.794;10.024;2023-07-13T23:46:57;21.10;33.00
24636;DHT22;12772;49.794;10.024;2023-07-13T23:50:59;21.10;33.00
24636;DHT22;12772;49.794;10.024;2023-07-13T23:55:01;21.10;33.00
24636;DHT22;12772;49.794;10.024;2023-07-13T23:59:10;21.10;33.00
